Accueil
Images satellite Prévisions 15 joursClimatMétéo marine Cyclones Foudre AéroportsFAQ Actualités A propos
Météo : Europe Afrique Amérique du Nord Amérique du Sud Asie Australie-Océanie Autres
Langues Contact

Florennes, Belgique

Base aérienne

latitude: 50-14N, longitude: 004-39E, altitude: 279 m


METAR: EBFS 191725Z 22003KT 9999 FEW030CB BKN250 20/17 Q1013 BLU BLU
short-TAF: EBFS 191541Z 1919/2007 21005KT 9999 FEW040 BKN20 BECMG 1921/1924 VRB03KT 9999 BKN150
long-TAF: EBFS 191541Z 1919/2007 21005KT 9999 FEW040 BKN20 BECMG 1921/1924 VRB03KT 9999 BKN150

Heure: 19:50 (17:50 UTC)

Observation

Le bulletin a été fait il y a 25 minutes, à 17:25 UTC  
Vent 03 kt de sud-ouest
Température 20°C
Humidité 83%
Pression 1013 hPa
Visibilité 10 km ou plus
Quelques nuages à une hauteur de 3000 ft , Cumulonimbus.
Nuages fragmentés à une hauteur de 25000 ft

Changer d'unités

Prévision

Le bulletin a été fait il y a 2 heures et 4 minutes, à 15:46 UTC  
Prévision valable du 19 à 19 UTC au 20 à 07 UTC
Vent 05 kt de sud/sud-ouest
Visibilité 10 km ou plus
Quelques nuages à une hauteur de 4000 ft
Evoluant progressivement
du 19 à 21 UTC au 19 à 24 UTC
Vent 03 kt de direction variable
Visibilité 10 km ou plus
Nuages fragmentés à une hauteur de 15000 ft

Prévision

Le bulletin a été fait il y a 2 heures et 2 minutes, à 15:48 UTC  
Prévision valable du 19 à 19 UTC au 20 à 07 UTC
Vent 05 kt de sud/sud-ouest
Visibilité 10 km ou plus
Quelques nuages à une hauteur de 4000 ft
Evoluant progressivement
du 19 à 21 UTC au 19 à 24 UTC
Vent 03 kt de direction variable
Visibilité 10 km ou plus
Nuages fragmentés à une hauteur de 15000 ft
Les informations qui figurent sur ce site font l'objet d'une clause de non-responsabilité
Météo : Europe Afrique Amérique du Nord Amérique du Sud Asie Australie-Océanie Autres
Images satellite Prévisions 15 joursClimatMétéo marine Cyclones Foudre AéroportsFAQ Langues Contact Actualités A propos